Terminal Aerodrome Forecast
Issued by NWS Sioux Falls, SD

Home | Current Version | Previous Version | Graphics & Text | Print | Product List | Glossary On
Versions: 1 2 3 4 5 6 7 8 9 10 11 12 13 14 15 16 17 18 19
000
FTUS43 KFSD 250550
TAFFSD
TAF
KFSD 250550Z 2506/2606 01018G25KT 3SM -SN OVC008
      TEMPO 2506/2508 1SM -SN OVC005
     FM250800 36018G25KT 5SM -SN OVC008
     FM251000 36015G22KT P6SM OVC010
     FM251500 34012KT P6SM BKN025
     FM252100 31007KT P6SM SCT035 BKN250
     FM260200 VRB03KT P6SM BKN100=

USA.gov is the U.S. government's official web portal to all federal, state and local government web resources and services.